Time;durP1;ratioP1;P1;durP2;ratioP2;P2;SDS_P1;SDS_P2;PMS_P1;PMS_P2;Temp;Humidity;BMP_temperature;BMP_pressure;BME280_temperature;BME280_humidity;BME280_pressure;Samples;Min_cycle;Max_cycle;Signal;HPM_P1;HPM_P2
2023/10/08 00:02:28;;;;;;;10.80;7.70;;;13.20;99.90;;;;;;5065295;29;20034;-77
2023/10/08 00:05:00;;;;;;;14.15;9.00;;;13.30;99.90;;;;;;5575908;23;20459;-76
2023/10/08 00:07:30;;;;;;;11.20;8.20;;;13.20;99.90;;;;;;5124168;28;20023;-76
2023/10/08 00:10:02;;;;;;;12.30;8.63;;;13.40;99.90;;;;;;5106343;29;20396;-74
2023/10/08 00:12:33;;;;;;;10.60;7.55;;;13.20;99.90;;;;;;5104384;29;20023;-75
2023/10/08 00:15:07;;;;;;;10.60;8.10;;;13.50;99.90;;;;;;5105568;29;20036;-75
2023/10/08 00:17:37;;;;;;;10.98;8.73;;;13.20;99.90;;;;;;5125280;28;20019;-76
2023/10/08 00:20:15;;;;;;;15.57;8.73;;;13.10;99.90;;;;;;5125341;28;20050;-74
2023/10/08 00:22:47;;;;;;;14.95;9.07;;;13.30;99.90;;;;;;5125351;28;20027;-75
2023/10/08 00:25:19;;;;;;;13.55;8.32;;;13.20;99.90;;;;;;5125335;28;20941;-74
2023/10/08 00:27:51;;;;;;;11.55;8.77;;;13.10;99.90;;;;;;5121203;28;20081;-77
2023/10/08 00:30:21;;;;;;;12.57;8.50;;;13.20;99.90;;;;;;5104601;29;20077;-74
2023/10/08 00:32:52;;;;;;;15.13;9.35;;;13.20;99.90;;;;;;5105498;29;20059;-74
2023/10/08 00:35:24;;;;;;;13.13;7.95;;;13.20;99.90;;;;;;5104822;29;20043;-77
2023/10/08 00:38:00;;;;;;;10.80;7.93;;;13.10;99.90;;;;;;5103910;29;20028;-76
2023/10/08 00:40:40;;;;;;;10.30;8.40;;;13.10;99.90;;;;;;5102834;29;20441;-77
2023/10/08 00:43:12;;;;;;;11.63;8.25;;;13.20;99.90;;;;;;5085570;29;20028;-76
2023/10/08 00:45:45;;;;;;;14.38;9.35;;;13.20;99.90;;;;;;5085402;29;20028;-75
2023/10/08 00:48:17;;;;;;;13.13;9.38;;;13.20;99.90;;;;;;5085444;29;20363;-76
2023/10/08 00:50:48;;;;;;;11.57;8.95;;;13.10;99.90;;;;;;5084127;29;20126;-73
2023/10/08 00:53:21;;;;;;;13.93;8.13;;;13.10;99.90;;;;;;5084679;29;20107;-76
2023/10/08 00:56:04;;;;;;;12.88;8.52;;;13.10;99.90;;;;;;5084804;29;20118;-76
2023/10/08 00:58:35;;;;;;;12.02;9.00;;;13.00;99.90;;;;;;5084203;29;20032;-77
2023/10/08 01:01:10;;;;;;;15.45;8.95;;;12.90;99.90;;;;;;5084003;29;20739;-72
2023/10/08 01:03:44;;;;;;;12.70;7.60;;;13.00;99.90;;;;;;5083765;29;20024;-78
2023/10/08 01:06:18;;;;;;;11.30;8.75;;;12.90;99.90;;;;;;5083810;29;20054;-73
2023/10/08 01:08:52;;;;;;;15.32;9.73;;;12.80;99.90;;;;;;5084215;29;20028;-76
2023/10/08 01:11:45;;;;;;;15.02;8.55;;;12.90;99.90;;;;;;5084664;29;20024;-78
2023/10/08 01:14:24;;;;;;;13.27;8.50;;;12.70;99.90;;;;;;5085150;29;20038;-78
2023/10/08 01:16:55;;;;;;;14.63;9.07;;;12.60;99.90;;;;;;5084913;29;20032;-78
2023/10/08 01:19:27;;;;;;;11.60;9.10;;;12.80;99.90;;;;;;5084993;29;20024;-79
2023/10/08 01:22:06;;;;;;;14.70;9.38;;;12.80;99.90;;;;;;5084980;29;20028;-79
2023/10/08 01:24:36;;;;;;;16.58;9.95;;;12.70;99.90;;;;;;5101213;29;20055;-79
2023/10/08 01:27:11;;;;;;;14.45;9.88;;;12.60;99.90;;;;;;5103325;29;20052;-78
2023/10/08 01:29:44;;;;;;;15.02;11.43;;;12.70;99.90;;;;;;5104610;29;20475;-78
2023/10/08 01:32:16;;;;;;;16.67;10.88;;;12.80;99.90;;;;;;5103274;29;20114;-79
2023/10/08 01:34:50;;;;;;;14.30;9.82;;;12.70;99.90;;;;;;5104352;29;20115;-80
2023/10/08 01:37:23;;;;;;;15.65;9.60;;;12.70;99.90;;;;;;5104690;29;20028;-80
2023/10/08 01:40:01;;;;;;;14.65;10.20;;;12.90;99.90;;;;;;5104580;29;20369;-79
2023/10/08 01:42:38;;;;;;;18.70;11.00;;;12.80;99.90;;;;;;5108053;29;20031;-79
2023/10/08 01:48:37;;;;;;;22.27;11.57;;;13.10;99.90;;;;;;5105692;29;20452;-80
2023/10/08 01:51:24;;;;;;;16.27;10.80;;;13.00;99.90;;;;;;5107548;29;20031;-80
2023/10/08 01:53:55;;;;;;;13.43;9.63;;;13.10;99.90;;;;;;5107310;29;20122;-75
2023/10/08 01:56:26;;;;;;;13.40;10.10;;;12.90;99.90;;;;;;5107510;29;20487;-77
2023/10/08 01:58:57;;;;;;;16.95;10.73;;;12.90;99.90;;;;;;5107006;29;20050;-79
2023/10/08 02:01:28;;;;;;;15.98;10.68;;;12.90;99.90;;;;;;5107056;29;20653;-78
2023/10/08 02:03:59;;;;;;;16.30;10.98;;;12.70;99.90;;;;;;5106997;29;20035;-80
2023/10/08 02:06:31;;;;;;;15.35;10.43;;;12.80;99.90;;;;;;5107425;29;20072;-79
2023/10/08 02:09:08;;;;;;;13.90;9.95;;;12.60;99.90;;;;;;5108069;29;20038;-79
2023/10/08 02:11:53;;;;;;;16.92;9.70;;;12.80;99.90;;;;;;5108092;29;20082;-76
2023/10/08 02:14:24;;;;;;;12.07;10.50;;;12.60;99.90;;;;;;5107921;29;20070;-78
2023/10/08 02:17:01;;;;;;;14.35;10.75;;;12.60;99.90;;;;;;5107525;29;20063;-76
2023/10/08 02:19:32;;;;;;;13.93;10.40;;;12.60;99.90;;;;;;5107759;29;20461;-78
2023/10/08 02:22:09;;;;;;;15.15;10.00;;;13.00;99.90;;;;;;5107643;29;20427;-79
2023/10/08 02:24:40;;;;;;;18.75;11.68;;;12.90;99.90;;;;;;5107448;29;20015;-78
2023/10/08 02:27:11;;;;;;;19.08;11.38;;;12.90;99.90;;;;;;5106025;29;20027;-75
2023/10/08 02:29:42;;;;;;;18.10;11.10;;;12.90;99.90;;;;;;5107191;29;20027;-75
2023/10/08 02:32:13;;;;;;;18.67;12.15;;;12.90;99.90;;;;;;5107164;29;20087;-79
2023/10/08 02:34:44;;;;;;;16.23;10.98;;;13.00;99.90;;;;;;5107115;29;20389;-79
2023/10/08 02:37:16;;;;;;;13.68;10.32;;;12.90;99.90;;;;;;5107421;29;20484;-78
2023/10/08 02:39:48;;;;;;;14.98;9.77;;;12.90;99.90;;;;;;5107330;29;20035;-78
2023/10/08 02:42:19;;;;;;;14.50;8.90;;;12.70;99.90;;;;;;5105403;29;20028;-78
2023/10/08 02:44:50;;;;;;;16.05;9.43;;;12.40;99.90;;;;;;5105684;29;20144;-79
2023/10/08 02:47:21;;;;;;;12.80;8.23;;;12.60;99.90;;;;;;5104748;29;20028;-77
2023/10/08 02:49:52;;;;;;;15.95;9.43;;;12.50;99.90;;;;;;5104965;29;20548;-74
2023/10/08 02:52:23;;;;;;;13.40;8.48;;;12.60;99.90;;;;;;5105486;29;20464;-79
2023/10/08 02:54:54;;;;;;;12.55;8.35;;;12.60;99.90;;;;;;5105831;29;20043;-78
2023/10/08 02:57:27;;;;;;;13.10;8.95;;;12.70;99.90;;;;;;5105803;29;20055;-79
2023/10/08 02:59:58;;;;;;;14.45;8.07;;;12.90;99.90;;;;;;5106297;29;20043;-78
2023/10/08 03:02:29;;;;;;;11.63;7.75;;;12.80;99.90;;;;;;5106951;29;20031;-78
2023/10/08 03:05:00;;;;;;;11.75;7.28;;;12.50;99.90;;;;;;5106632;29;20448;-77
2023/10/08 03:07:35;;;;;;;11.93;9.05;;;12.30;99.90;;;;;;5106920;29;20031;-78
2023/10/08 03:10:06;;;;;;;15.90;9.20;;;12.60;99.90;;;;;;5107136;29;20899;-76
2023/10/08 03:12:37;;;;;;;13.40;9.30;;;12.70;99.90;;;;;;5106705;29;20019;-78
2023/10/08 03:17:48;;;;;;;14.95;9.70;;;12.90;99.90;;;;;;5106794;29;20051;-75
2023/10/08 03:20:38;;;;;;;12.85;8.57;;;12.80;99.90;;;;;;5106485;29;20031;-77
2023/10/08 03:23:23;;;;;;;14.48;9.23;;;12.70;99.90;;;;;;5106581;29;20050;-78
2023/10/08 03:26:09;;;;;;;15.80;8.85;;;12.70;99.90;;;;;;5106529;29;20036;-78
2023/10/08 03:28:41;;;;;;;12.88;8.25;;;12.90;99.90;;;;;;5106613;29;20114;-77
2023/10/08 03:31:17;;;;;;;12.65;8.85;;;12.80;99.90;;;;;;5105140;29;20028;-78
2023/10/08 03:33:51;;;;;;;14.15;9.52;;;12.90;99.90;;;;;;5104951;29;20078;-76
2023/10/08 03:36:33;;;;;;;18.00;9.05;;;13.00;99.90;;;;;;5105197;29;20043;-75
2023/10/08 03:39:12;;;;;;;14.93;9.63;;;12.90;99.90;;;;;;5105937;29;20031;-77
2023/10/08 03:42:06;;;;;;;15.15;8.95;;;12.80;99.90;;;;;;5105930;29;20024;-76
2023/10/08 03:44:37;;;;;;;13.65;9.32;;;13.00;99.90;;;;;;5105157;29;20040;-78
2023/10/08 03:47:10;;;;;;;16.02;9.68;;;13.10;99.90;;;;;;5104932;29;20024;-78
2023/10/08 03:49:45;;;;;;;10.57;7.90;;;13.00;99.90;;;;;;5103640;29;20042;-74
2023/10/08 03:52:18;;;;;;;14.73;9.70;;;13.10;99.90;;;;;;5104900;29;20822;-75
2023/10/08 03:55:04;;;;;;;14.45;10.50;;;12.90;99.90;;;;;;5104838;29;20039;-76
2023/10/08 03:57:41;;;;;;;16.35;10.48;;;13.00;99.90;;;;;;5105622;29;20460;-78
2023/10/08 04:00:15;;;;;;;15.95;11.43;;;13.10;99.90;;;;;;5106425;29;20020;-76
2023/10/08 04:03:00;;;;;;;19.10;11.93;;;13.10;99.90;;;;;;5105896;29;20023;-77
2023/10/08 04:05:43;;;;;;;16.98;11.40;;;12.90;99.90;;;;;;5105068;29;20048;-78
2023/10/08 04:08:19;;;;;;;20.38;11.95;;;12.90;99.90;;;;;;5105925;29;20393;-78
2023/10/08 04:11:07;;;;;;;18.52;10.88;;;13.00;99.90;;;;;;5105854;29;20028;-77
2023/10/08 04:13:44;;;;;;;18.83;12.45;;;13.20;99.90;;;;;;5104627;29;20028;-78
2023/10/08 04:16:19;;;;;;;16.25;11.45;;;13.10;99.90;;;;;;5105777;29;20524;-77
2023/10/08 04:18:50;;;;;;;21.42;11.85;;;13.30;99.90;;;;;;5105683;29;20030;-78
2023/10/08 04:21:27;;;;;;;17.52;11.82;;;13.10;99.90;;;;;;5105492;29;20107;-76
2023/10/08 04:23:58;;;;;;;19.50;11.68;;;13.30;99.90;;;;;;5104425;29;20032;-77
2023/10/08 04:26:28;;;;;;;18.75;11.30;;;13.30;99.90;;;;;;5105901;29;20035;-77
2023/10/08 04:29:06;;;;;;;20.60;12.50;;;13.20;99.90;;;;;;5104646;29;20042;-76
2023/10/08 04:31:37;;;;;;;17.65;12.65;;;13.20;99.90;;;;;;5105320;29;20035;-78
2023/10/08 04:34:17;;;;;;;16.50;12.45;;;13.20;99.90;;;;;;5104700;29;20047;-76
2023/10/08 04:36:54;;;;;;;19.70;12.50;;;13.20;99.90;;;;;;5103466;29;20031;-78
2023/10/08 04:39:34;;;;;;;19.70;12.40;;;13.30;99.90;;;;;;5104305;29;20046;-79
2023/10/08 04:42:10;;;;;;;20.30;13.48;;;13.20;99.90;;;;;;5103996;29;20044;-75
2023/10/08 04:44:41;;;;;;;25.60;14.25;;;13.30;99.90;;;;;;5102655;29;20653;-76
2023/10/08 04:47:31;;;;;;;21.15;14.13;;;13.50;99.90;;;;;;5103809;29;20038;-77
2023/10/08 04:50:05;;;;;;;20.45;14.07;;;13.40;99.90;;;;;;5102599;29;20071;-77
2023/10/08 04:52:45;;;;;;;20.50;13.13;;;13.50;99.90;;;;;;5103823;29;20506;-77
2023/10/08 04:55:20;;;;;;;20.35;14.68;;;13.50;99.90;;;;;;5104807;29;20040;-77
2023/10/08 04:57:52;;;;;;;26.85;14.30;;;13.50;99.90;;;;;;5104743;29;20020;-73
2023/10/08 05:00:43;;;;;;;22.67;15.88;;;13.50;99.90;;;;;;5104748;29;20035;-77
2023/10/08 05:03:14;;;;;;;24.13;15.32;;;13.50;99.90;;;;;;5104780;29;20051;-78
2023/10/08 05:05:55;;;;;;;23.42;15.45;;;13.70;99.90;;;;;;5104127;29;20055;-74
2023/10/08 05:08:32;;;;;;;23.83;16.52;;;13.80;99.90;;;;;;5103116;29;20061;-74
2023/10/08 05:11:25;;;;;;;25.55;16.05;;;13.90;99.90;;;;;;5103104;29;20523;-74
2023/10/08 05:14:45;;;;;;;25.38;16.13;;;14.00;99.90;;;;;;5104236;29;20072;-74
2023/10/08 05:17:09;;;;;;;23.02;16.17;;;14.20;99.90;;;;;;5098990;29;20616;-74
2023/10/08 05:25:24;;;;;;;25.98;16.80;;;14.50;99.90;;;;;;5104543;29;20036;-76
2023/10/08 05:33:24;;;;;;;27.73;18.13;;;14.80;99.90;;;;;;5103850;29;20055;-76
2023/10/08 05:36:50;;;;;;;23.52;16.23;;;14.90;99.90;;;;;;5101169;29;20071;-75
2023/10/08 05:38:59;;;;;;;25.25;18.15;;;14.90;99.90;;;;;;5097051;29;20388;-75
2023/10/08 05:41:51;;;;;;;29.52;17.27;;;15.20;99.90;;;;;;5102923;29;20432;-76
2023/10/08 05:54:47;;;;;;;24.17;18.02;;;15.80;99.90;;;;;;5103917;29;20072;-73
2023/10/08 05:57:38;;;;;;;24.27;15.85;;;16.00;99.90;;;;;;5103967;29;20103;-75
2023/10/08 06:13:50;;;;;;;22.10;15.10;;;16.50;99.90;;;;;;5103854;29;20028;-78
2023/10/08 06:18:31;;;;;;;24.67;13.88;;;16.90;99.90;;;;;;5104302;29;20039;-78
2023/10/08 06:21:11;;;;;;;17.92;13.02;;;16.90;99.90;;;;;;5104265;29;20106;-76
2023/10/08 06:23:42;;;;;;;19.20;11.68;;;17.00;99.90;;;;;;5104571;29;20027;-74
2023/10/08 06:28:44;;;;;;;20.50;13.80;;;17.20;99.90;;;;;;5106930;29;20024;-79
2023/10/08 06:31:16;;;;;;;20.35;12.48;;;17.40;99.90;;;;;;5106443;29;20408;-74
2023/10/08 06:33:48;;;;;;;23.90;13.18;;;17.40;99.90;;;;;;5106230;29;20480;-77
2023/10/08 06:36:24;;;;;;;16.85;11.50;;;17.60;99.90;;;;;;5106328;29;20083;-78
2023/10/08 06:38:54;;;;;;;19.55;12.27;;;17.80;99.90;;;;;;5105400;29;20032;-77
2023/10/08 06:41:33;;;;;;;19.75;11.85;;;17.90;99.90;;;;;;5106189;29;20035;-78
2023/10/08 06:44:13;;;;;;;16.98;11.43;;;18.00;99.90;;;;;;5106204;29;20024;-78
2023/10/08 06:46:45;;;;;;;18.85;10.88;;;18.10;99.90;;;;;;5107466;29;20019;-78
2023/10/08 06:49:18;;;;;;;17.80;10.68;;;18.30;99.90;;;;;;5107874;29;20020;-76
2023/10/08 06:51:51;;;;;;;15.73;10.23;;;18.40;99.90;;;;;;5107686;29;20031;-77
2023/10/08 06:54:22;;;;;;;23.42;10.57;;;18.60;99.90;;;;;;5107396;29;20043;-77
2023/10/08 06:56:53;;;;;;;18.10;10.40;;;18.70;99.90;;;;;;5107038;29;20365;-76
2023/10/08 06:59:25;;;;;;;16.77;10.48;;;18.70;99.90;;;;;;5107004;29;20088;-76
2023/10/08 07:01:56;;;;;;;21.00;11.77;;;18.80;99.90;;;;;;5107032;29;20020;-78
2023/10/08 07:04:29;;;;;;;21.70;11.30;;;18.90;99.90;;;;;;5103032;29;20044;-79
2023/10/08 07:07:00;;;;;;;17.52;11.38;;;19.10;99.90;;;;;;5098242;29;20036;-75
2023/10/08 07:09:36;;;;;;;16.63;10.52;;;19.20;99.90;;;;;;5107025;29;20024;-74
2023/10/08 07:12:13;;;;;;;13.90;10.75;;;19.30;99.90;;;;;;5096498;29;20028;-77
2023/10/08 07:14:46;;;;;;;17.52;12.07;;;19.50;99.90;;;;;;5085477;29;20143;-78
2023/10/08 07:17:19;;;;;;;18.48;11.82;;;19.70;99.90;;;;;;5105295;29;20114;-74
2023/10/08 07:19:50;;;;;;;17.17;11.75;;;19.70;99.90;;;;;;5106418;29;20067;-76
2023/10/08 07:22:28;;;;;;;27.58;14.05;;;20.00;99.90;;;;;;5101152;29;20027;-77
2023/10/08 07:24:59;;;;;;;21.40;15.65;;;20.00;99.90;;;;;;5086505;29;20071;-77
2023/10/08 07:27:31;;;;;;;23.77;15.32;;;20.20;99.90;;;;;;5084389;29;20029;-76
2023/10/08 07:30:10;;;;;;;21.85;17.42;;;20.40;99.90;;;;;;5085419;29;20028;-77
2023/10/08 07:32:40;;;;;;;21.88;16.40;;;20.40;99.90;;;;;;5085293;29;20043;-77
2023/10/08 07:37:53;;;;;;;20.98;13.73;;;20.70;99.90;;;;;;5085035;29;20032;-78
2023/10/08 07:40:29;;;;;;;15.35;11.85;;;20.80;99.90;;;;;;5085066;29;20036;-78
2023/10/08 07:43:08;;;;;;;19.63;11.82;;;21.00;99.90;;;;;;5086447;29;20024;-74
2023/10/08 07:45:39;;;;;;;18.13;10.95;;;21.10;99.90;;;;;;5094604;29;20023;-78
2023/10/08 07:48:10;;;;;;;18.58;11.10;;;21.20;99.90;;;;;;5086306;29;20393;-74
2023/10/08 07:50:43;;;;;;;19.27;12.75;;;21.20;99.90;;;;;;5086735;29;20091;-78
2023/10/08 07:53:17;;;;;;;16.20;12.60;;;21.40;99.90;;;;;;5085322;29;20354;-77
2023/10/08 07:55:48;;;;;;;21.05;13.35;;;21.60;99.90;;;;;;5086264;29;20028;-77
2023/10/08 07:58:19;;;;;;;18.17;13.90;;;21.70;99.90;;;;;;5086170;29;20025;-78
2023/10/08 08:00:54;;;;;;;23.77;13.70;;;21.80;99.90;;;;;;5084954;29;20043;-76
2023/10/08 08:03:24;;;;;;;18.52;12.57;;;21.90;99.90;;;;;;5086070;29;20394;-78
2023/10/08 08:05:55;;;;;;;18.08;12.05;;;22.10;99.90;;;;;;5085863;29;20079;-76
2023/10/08 08:08:27;;;;;;;20.83;12.02;;;22.10;99.90;;;;;;5084792;29;20086;-78
2023/10/08 08:11:03;;;;;;;22.45;12.55;;;22.30;99.90;;;;;;5085826;29;20024;-78
2023/10/08 08:13:34;;;;;;;15.70;12.25;;;22.40;99.90;;;;;;5086187;29;20032;-75
2023/10/08 08:16:18;;;;;;;16.98;12.70;;;22.50;99.90;;;;;;5085975;29;20028;-78
2023/10/08 08:18:57;;;;;;;17.10;14.43;;;22.60;99.90;;;;;;5083751;29;20086;-77
2023/10/08 08:21:30;;;;;;;19.25;14.85;;;22.80;99.90;;;;;;5085501;29;20032;-80
2023/10/08 08:24:07;;;;;;;18.02;11.75;;;22.80;99.90;;;;;;5084530;29;20032;-76
2023/10/08 08:27:01;;;;;;;13.10;8.65;;;22.80;99.90;;;;;;5084454;29;20133;-76
2023/10/08 08:29:44;;;;;;;12.30;8.82;;;23.00;99.90;;;;;;5084481;29;20068;-76
2023/10/08 08:32:21;;;;;;;14.30;8.98;;;23.20;99.90;;;;;;5084596;29;20024;-77
2023/10/08 08:34:52;;;;;;;15.02;8.63;;;23.30;99.90;;;;;;5084769;29;20048;-76
2023/10/08 08:37:25;;;;;;;12.90;7.88;;;23.30;99.90;;;;;;5084862;29;20037;-72
2023/10/08 08:39:57;;;;;;;11.45;7.68;;;23.40;99.90;;;;;;5085730;29;20035;-77
2023/10/08 08:42:30;;;;;;;13.05;9.20;;;23.40;99.90;;;;;;5084481;29;20028;-76
2023/10/08 08:45:08;;;;;;;10.25;6.57;;;23.50;99.90;;;;;;5085549;29;20024;-74
2023/10/08 08:47:44;;;;;;;9.25;6.72;;;23.60;99.90;;;;;;5084180;29;20039;-78
2023/10/08 08:50:17;;;;;;;7.55;6.50;;;23.60;99.90;;;;;;5084925;29;20079;-75
2023/10/08 08:52:48;;;;;;;10.10;6.90;;;23.60;99.90;;;;;;5085386;29;20376;-77
2023/10/08 08:55:20;;;;;;;11.27;7.50;;;23.70;99.90;;;;;;5084088;29;20044;-77
2023/10/08 08:57:52;;;;;;;12.50;7.53;;;23.70;99.90;;;;;;5085292;29;20043;-75
2023/10/08 09:00:28;;;;;;;13.55;7.43;;;23.80;99.90;;;;;;5084063;29;20032;-77
2023/10/08 09:02:59;;;;;;;8.10;6.03;;;23.80;99.90;;;;;;5085419;29;20028;-77
2023/10/08 09:05:36;;;;;;;9.73;6.65;;;23.80;99.90;;;;;;5085429;29;20056;-77
2023/10/08 09:08:09;;;;;;;13.20;6.95;;;24.00;99.90;;;;;;5083913;29;20044;-73
2023/10/08 09:10:54;;;;;;;15.65;7.80;;;24.20;99.90;;;;;;5085192;29;20115;-78
2023/10/08 09:13:25;;;;;;;8.32;6.45;;;24.30;99.90;;;;;;5085125;29;20024;-77
2023/10/08 09:16:07;;;;;;;10.48;6.75;;;24.10;99.90;;;;;;5082866;29;20047;-77
2023/10/08 09:18:39;;;;;;;9.65;7.28;;;24.20;99.90;;;;;;5084838;29;20040;-72
2023/10/08 09:21:12;;;;;;;10.88;7.55;;;24.20;99.90;;;;;;5086500;29;20048;-76
2023/10/08 09:23:44;;;;;;;13.57;9.32;;;24.20;99.90;;;;;;5089736;29;20560;-76
2023/10/08 09:26:18;;;;;;;13.15;9.02;;;24.20;99.90;;;;;;5086876;29;20014;-77
2023/10/08 09:28:51;;;;;;;14.45;8.20;;;24.30;99.90;;;;;;5091782;29;20437;-72
2023/10/08 09:31:25;;;;;;;15.85;9.43;;;24.50;99.90;;;;;;5091480;29;20047;-78
2023/10/08 09:33:56;;;;;;;13.32;9.43;;;24.40;99.90;;;;;;5553905;23;20036;-77
2023/10/08 09:36:33;;;;;;;10.55;8.02;;;24.60;99.90;;;;;;5098829;29;20440;-76
2023/10/08 09:39:05;;;;;;;10.18;8.93;;;24.70;99.90;;;;;;5104539;28;20111;-76
2023/10/08 09:41:38;;;;;;;11.88;8.73;;;24.70;99.90;;;;;;5103480;28;20102;-74
2023/10/08 09:44:10;;;;;;;16.80;9.23;;;24.80;99.90;;;;;;5099990;29;20051;-75
2023/10/08 09:46:49;;;;;;;13.98;9.25;;;24.80;99.90;;;;;;5102932;29;20032;-74
2023/10/08 09:49:31;;;;;;;12.63;10.03;;;25.00;99.90;;;;;;5102747;29;20038;-77
2023/10/08 09:52:06;;;;;;;11.52;8.35;;;25.00;99.90;;;;;;5099427;29;20087;-73
2023/10/08 09:54:48;;;;;;;10.25;8.25;;;25.10;99.90;;;;;;5100575;29;20043;-76
2023/10/08 09:57:21;;;;;;;9.70;7.53;;;25.10;99.90;;;;;;5103245;29;20024;-73
2023/10/08 09:59:54;;;;;;;8.85;6.90;;;25.00;99.90;;;;;;5102327;29;20118;-76
2023/10/08 10:02:27;;;;;;;15.02;7.72;;;25.10;99.90;;;;;;5103412;29;20047;-78
2023/10/08 10:05:01;;;;;;;9.45;8.23;;;25.10;99.90;;;;;;5089207;29;20039;-74
2023/10/08 10:07:32;;;;;;;11.70;9.18;;;25.30;99.90;;;;;;5078127;29;20020;-75
2023/10/08 10:10:26;;;;;;;14.23;9.27;;;25.40;99.90;;;;;;5092727;29;20051;-76
2023/10/08 10:13:09;;;;;;;14.07;9.27;;;25.20;99.90;;;;;;5079740;29;20031;-74
2023/10/08 10:15:42;;;;;;;17.75;9.57;;;25.30;99.90;;;;;;5077584;29;20373;-78
2023/10/08 10:18:15;;;;;;;15.35;7.95;;;25.30;99.90;;;;;;5091370;29;20028;-77
2023/10/08 10:20:51;;;;;;;11.95;8.45;;;25.30;99.90;;;;;;5098772;28;20032;-77
2023/10/08 10:23:39;;;;;;;12.73;7.93;;;25.30;99.90;;;;;;5096183;29;20036;-77
2023/10/08 10:26:34;;;;;;;11.32;8.60;;;25.40;99.90;;;;;;5100651;29;20036;-78
2023/10/08 10:29:08;;;;;;;12.32;8.77;;;25.30;99.90;;;;;;5089965;29;20388;-77
2023/10/08 10:31:47;;;;;;;14.57;8.63;;;25.30;99.90;;;;;;5068430;29;20036;-77
2023/10/08 10:34:27;;;;;;;15.77;9.90;;;25.80;99.90;;;;;;5094400;28;20060;-77
2023/10/08 10:37:19;;;;;;;;;;;25.80;99.90;;;;;;5090019;29;20078;-78
2023/10/08 10:39:59;;;;;;;13.05;10.60;;;25.90;99.90;;;;;;5087628;29;20005;-76
2023/10/08 10:42:30;;;;;;;14.18;11.30;;;26.10;99.90;;;;;;5087904;29;20020;-77
2023/10/08 10:45:09;;;;;;;13.07;10.10;;;25.90;99.90;;;;;;5087676;29;20362;-78
2023/10/08 10:47:43;;;;;;;12.25;10.45;;;26.00;99.90;;;;;;5087714;29;20080;-79
2023/10/08 10:50:31;;;;;;;11.40;9.55;;;26.20;99.90;;;;;;5087467;29;20075;-78
2023/10/08 10:53:11;;;;;;;13.18;8.20;;;26.20;99.90;;;;;;5087357;29;20032;-77
2023/10/08 10:55:58;;;;;;;11.15;8.27;;;26.20;99.30;;;;;;5087584;29;20040;-77
2023/10/08 10:58:38;;;;;;;12.70;7.53;;;26.20;96.90;;;;;;5087503;29;20032;-77
2023/10/08 11:01:24;;;;;;;9.30;6.80;;;26.40;98.30;;;;;;5087407;29;20031;-80
2023/10/08 11:03:59;;;;;;;7.30;6.18;;;26.40;99.80;;;;;;5101753;29;20176;-79
2023/10/08 11:06:33;;;;;;;9.18;6.43;;;26.40;99.90;;;;;;5101444;29;20044;-77
2023/10/08 11:09:05;;;;;;;8.07;7.25;;;26.50;99.90;;;;;;5086832;29;20032;-77
2023/10/08 11:11:36;;;;;;;10.07;7.70;;;26.10;93.50;;;;;;5100636;29;20043;-77
2023/10/08 11:14:12;;;;;;;9.75;7.32;;;26.50;96.10;;;;;;5085502;29;20036;-77
2023/10/08 11:16:47;;;;;;;12.27;7.15;;;26.20;96.10;;;;;;5087625;29;20557;-75
2023/10/08 11:19:20;;;;;;;9.25;7.07;;;26.40;97.20;;;;;;5078126;29;20036;-77
2023/10/08 11:21:54;;;;;;;8.27;6.70;;;26.50;98.20;;;;;;5079513;29;20119;-77
2023/10/08 11:24:29;;;;;;;9.80;6.78;;;26.60;95.30;;;;;;5085831;29;20032;-81
2023/10/08 11:27:16;;;;;;;12.75;6.68;;;26.60;90.90;;;;;;5085477;29;20028;-78
2023/10/08 11:29:48;;;;;;;8.00;6.20;;;26.70;92.40;;;;;;5086978;29;20036;-77
2023/10/08 11:32:25;;;;;;;11.50;6.78;;;26.80;91.30;;;;;;5088662;29;20026;-77
2023/10/08 16:17:43;;;;;;;16.35;14.55;;;21.00;99.90;;;;;;6008249;22;47679;-76
2023/10/08 16:20:14;;;;;;;15.93;14.40;;;20.90;99.90;;;;;;6491781;22;20007;-80
2023/10/08 16:22:47;;;;;;;16.70;13.60;;;20.90;99.90;;;;;;6492142;22;20406;-80
2023/10/08 16:25:18;;;;;;;16.60;13.23;;;20.80;99.90;;;;;;6493983;22;20007;-78
2023/10/08 16:27:52;;;;;;;15.82;14.20;;;20.80;99.90;;;;;;6490491;22;20007;-76
2023/10/08 16:30:27;;;;;;;16.92;15.15;;;20.60;99.90;;;;;;6489656;22;20094;-79
2023/10/08 16:32:58;;;;;;;17.15;14.88;;;20.60;99.90;;;;;;6490010;22;19995;-79
2023/10/08 16:35:30;;;;;;;16.77;14.98;;;20.70;99.90;;;;;;6489813;22;20003;-78
2023/10/08 16:38:02;;;;;;;20.23;17.20;;;20.60;99.90;;;;;;6487759;22;20053;-77
2023/10/08 16:40:33;;;;;;;21.73;16.17;;;20.40;99.90;;;;;;6489907;22;19996;-77
2023/10/08 16:43:04;;;;;;;15.35;13.85;;;20.50;99.90;;;;;;6490099;22;20008;-79
2023/10/08 16:45:36;;;;;;;14.63;11.57;;;20.50;99.90;;;;;;6489360;22;20012;-80
2023/10/08 16:48:10;;;;;;;19.48;10.20;;;20.40;99.90;;;;;;6489493;22;20007;-78
2023/10/08 16:50:42;;;;;;;14.07;9.68;;;20.50;99.90;;;;;;6489822;22;20456;-78
2023/10/08 16:53:16;;;;;;;15.63;10.23;;;20.50;99.90;;;;;;6488794;22;20002;-79
2023/10/08 16:55:49;;;;;;;12.55;9.75;;;20.40;99.90;;;;;;6489048;22;20007;-84
2023/10/08 16:58:20;;;;;;;17.15;11.82;;;20.40;99.90;;;;;;6489605;22;20088;-77
2023/10/08 17:00:52;;;;;;;17.20;11.05;;;20.40;99.90;;;;;;6489161;22;20007;-78
2023/10/08 17:03:23;;;;;;;23.58;10.48;;;20.20;99.90;;;;;;6489467;22;20030;-79
2023/10/08 17:05:55;;;;;;;12.68;9.77;;;20.10;99.90;;;;;;6487062;22;20012;-79
2023/10/08 17:08:27;;;;;;;17.20;9.95;;;20.10;99.90;;;;;;6487914;22;20027;-75
2023/10/08 17:10:57;;;;;;;14.40;8.90;;;20.00;99.90;;;;;;6488616;22;20008;-78
2023/10/08 17:13:29;;;;;;;16.45;9.50;;;19.90;99.90;;;;;;6488650;22;19999;-77
2023/10/08 17:16:00;;;;;;;15.45;9.75;;;19.90;99.90;;;;;;6486774;22;20019;-81
2023/10/08 17:18:32;;;;;;;15.00;10.15;;;19.80;99.90;;;;;;6488850;22;20018;-77
2023/10/08 17:21:04;;;;;;;15.57;10.63;;;20.00;99.90;;;;;;6487152;22;20420;-78
2023/10/08 17:23:35;;;;;;;20.25;11.05;;;20.00;99.90;;;;;;6487467;22;20633;-77
2023/10/08 17:26:10;;;;;;;19.17;11.77;;;20.00;99.90;;;;;;6489503;22;20067;-76
2023/10/08 17:28:41;;;;;;;20.05;11.23;;;20.00;99.90;;;;;;6488701;22;20069;-81
2023/10/08 17:31:12;;;;;;;18.27;12.05;;;19.90;99.90;;;;;;6488854;22;20008;-80
2023/10/08 17:33:45;;;;;;;16.73;11.32;;;19.80;99.90;;;;;;6489790;22;20054;-81
2023/10/08 17:36:16;;;;;;;15.98;10.80;;;19.80;99.90;;;;;;6487664;22;20011;-79
2023/10/08 17:38:47;;;;;;;19.92;11.00;;;19.60;99.90;;;;;;6489384;22;20004;-77
2023/10/08 17:41:18;;;;;;;21.10;11.35;;;19.60;99.90;;;;;;6486718;22;20034;-77
2023/10/08 17:43:49;;;;;;;18.15;11.77;;;19.70;99.90;;;;;;6490084;22;20004;-81
2023/10/08 17:46:20;;;;;;;15.60;12.27;;;19.50;99.90;;;;;;6489728;22;20316;-83
2023/10/08 17:48:53;;;;;;;16.42;11.63;;;19.40;99.90;;;;;;6489486;22;20007;-80
2023/10/08 17:51:27;;;;;;;19.60;11.63;;;19.80;99.90;;;;;;6489704;22;20328;-79
2023/10/08 17:54:01;;;;;;;17.42;12.30;;;19.60;99.90;;;;;;6489651;22;20006;-84
2023/10/08 17:56:32;;;;;;;15.43;12.13;;;19.70;99.90;;;;;;6489207;22;20014;-76
2023/10/08 17:59:06;;;;;;;20.63;13.07;;;19.50;99.90;;;;;;6488453;22;20008;-79
2023/10/08 18:01:39;;;;;;;19.40;13.40;;;19.50;99.90;;;;;;6489246;22;20008;-81
2023/10/08 18:04:10;;;;;;;20.35;14.05;;;19.60;99.90;;;;;;6488784;22;20004;-80
2023/10/08 18:06:41;;;;;;;20.60;14.55;;;19.60;99.90;;;;;;6488236;22;20012;-80
2023/10/08 18:09:12;;;;;;;23.50;14.95;;;19.60;99.90;;;;;;6487891;22;20027;-76
2023/10/08 18:11:43;;;;;;;19.30;13.98;;;19.50;99.90;;;;;;6487162;22;20000;-78
2023/10/08 18:14:18;;;;;;;20.67;14.35;;;19.60;99.90;;;;;;6487194;22;20010;-79
2023/10/08 18:16:49;;;;;;;22.63;14.40;;;19.60;99.90;;;;;;6487970;22;20015;-79
2023/10/08 18:19:20;;;;;;;19.50;13.43;;;19.60;99.90;;;;;;6489095;22;20018;-83
2023/10/08 18:21:51;;;;;;;20.17;13.27;;;19.50;99.90;;;;;;6487601;22;20004;-80
2023/10/08 18:24:23;;;;;;;21.40;12.45;;;19.40;99.90;;;;;;6488907;22;20008;-83
2023/10/08 18:26:54;;;;;;;23.02;11.32;;;19.50;99.90;;;;;;6489415;22;20603;-76
2023/10/08 18:29:26;;;;;;;16.13;10.23;;;19.20;99.90;;;;;;6489262;22;20038;-78
2023/10/08 18:31:58;;;;;;;17.65;10.88;;;18.80;99.90;;;;;;6489222;22;20007;-87
2023/10/08 18:34:29;;;;;;;17.15;10.70;;;18.70;99.90;;;;;;6491000;22;20007;-76
2023/10/08 18:37:00;;;;;;;19.23;11.93;;;18.80;99.90;;;;;;6490788;22;20000;-76
2023/10/08 18:39:32;;;;;;;18.48;12.82;;;18.80;99.90;;;;;;6490950;22;20003;-80
2023/10/08 18:42:05;;;;;;;16.25;10.90;;;18.70;99.90;;;;;;6491548;22;19999;-76
2023/10/08 18:44:36;;;;;;;24.67;12.77;;;18.70;99.90;;;;;;6491468;22;20007;-80